In Rescue
 
Open Full Screen Window  High Contrast Mode
Wind Gusting 16 knots
08
November 29, 2022 9:19 AM EST
Weather Information
Wind Direction
  110 °
Wind Speed
  08 kt (9 mph)
Wind Gust
  16 kt (18 mph)
Altimeter
29.91 in
Visibility
10 SM
Temperature
04° C
39° F
Dewpoint
00° C
32° F
Humidity
75%
Sky Condition
Overcast @ 2,800 ft
MVFR

METAR KACB 291419Z AUTO 11008G16KT 10SM OVC028 04/00 A2991 RMK AO2 T00390000

FAA Disclaimer: The data displayed is for advisory purposes only and is not to be used for flight planning or operations.